createdAt,value
2022-07-26T00:00:13.899Z,4.78
2022-07-26T00:02:47.706Z,3.25
2022-07-26T00:05:18.785Z,2.92
2022-07-26T00:07:46.640Z,3.90
2022-07-26T00:10:13.988Z,3.45
2022-07-26T00:12:41.089Z,3.83
2022-07-26T00:15:10.875Z,4.32
2022-07-26T00:17:38.524Z,2.65
2022-07-26T00:20:06.107Z,1.80
2022-07-26T00:22:35.641Z,3.28
2022-07-26T00:25:05.360Z,3.42
2022-07-26T00:27:32.389Z,5.45
2022-07-26T00:29:59.308Z,3.50
2022-07-26T00:32:26.237Z,2.05
2022-07-26T00:34:53.113Z,4.05
2022-07-26T00:37:21.138Z,3.03
2022-07-26T00:39:48.759Z,2.58
2022-07-26T00:42:16.092Z,1.98
2022-07-26T00:44:45.193Z,2.97
2022-07-26T00:47:12.927Z,4.88
2022-07-26T00:49:40.012Z,2.63
2022-07-26T00:52:08.529Z,2.95
2022-07-26T00:54:36.498Z,3.08
2022-07-26T00:57:03.731Z,3.53
2022-07-26T00:59:30.795Z,2.40
2022-07-26T01:01:58.065Z,3.13
2022-07-26T01:04:24.977Z,2.58
2022-07-26T01:06:52.019Z,1.83
2022-07-26T01:09:19.569Z,3.05
2022-07-26T01:11:46.287Z,2.08
2022-07-26T01:14:13.088Z,4.63
2022-07-26T01:16:39.899Z,2.15
2022-07-26T01:19:06.880Z,1.50
2022-07-26T01:21:34.188Z,2.75
2022-07-26T01:24:01.116Z,2.40
2022-07-26T01:26:27.963Z,8.65
2022-07-26T01:28:54.705Z,3.30
2022-07-26T01:31:21.600Z,4.50
2022-07-26T01:33:48.882Z,3.70
2022-07-26T01:36:16.218Z,2.57
2022-07-26T01:38:43.524Z,4.40
2022-07-26T01:41:10.483Z,3.92
2022-07-26T01:43:37.556Z,3.00
2022-07-26T01:46:05.986Z,3.58
2022-07-26T01:48:32.968Z,4.85
2022-07-26T01:51:00.254Z,2.97
2022-07-26T01:53:27.038Z,4.83
2022-07-26T01:55:53.871Z,3.13
2022-07-26T01:58:20.694Z,4.57
2022-07-26T02:00:48.088Z,6.47
2022-07-26T02:03:14.990Z,4.03
2022-07-26T02:05:41.754Z,5.43
2022-07-26T02:08:08.550Z,2.20
2022-07-26T02:10:55.356Z,4.60
2022-07-26T02:13:22.298Z,4.17
2022-07-26T02:15:49.083Z,4.38
2022-07-26T02:18:15.873Z,4.77
2022-07-26T02:20:42.586Z,3.93
2022-07-26T02:23:09.336Z,4.47
2022-07-26T02:25:36.065Z,4.60
2022-07-26T02:28:03.262Z,9.67
2022-07-26T02:30:29.980Z,5.87
2022-07-26T02:32:56.727Z,3.50
2022-07-26T02:35:23.621Z,2.07
2022-07-26T02:37:50.318Z,6.10
2022-07-26T02:40:19.306Z,5.80
2022-07-26T02:42:46.621Z,3.67
2022-07-26T02:45:13.320Z,4.15
2022-07-26T02:47:50.725Z,4.72
2022-07-26T02:50:18.859Z,4.10
2022-07-26T02:52:47.982Z,4.53
2022-07-26T02:55:16.307Z,8.07
2022-07-26T02:57:46.418Z,5.63
2022-07-26T03:00:19.065Z,8.10
2022-07-26T03:02:46.394Z,6.33
2022-07-26T03:05:13.187Z,5.95
2022-07-26T03:07:39.876Z,5.13
2022-07-26T03:10:07.630Z,6.43
2022-07-26T03:12:34.789Z,5.37
2022-07-26T03:15:01.517Z,7.57
2022-07-26T03:17:28.229Z,4.80
2022-07-26T03:19:54.971Z,5.13
2022-07-26T03:22:21.704Z,4.50
2022-07-26T03:24:48.410Z,3.90
2022-07-26T03:27:15.096Z,7.50
2022-07-26T03:29:41.879Z,4.33
2022-07-26T03:32:09.426Z,8.40
2022-07-26T03:34:36.230Z,3.87
2022-07-26T03:37:03.356Z,4.80
2022-07-26T03:39:30.144Z,6.47
2022-07-26T03:41:56.950Z,5.47
2022-07-26T03:44:23.652Z,6.37
2022-07-26T03:46:50.359Z,7.85
2022-07-26T03:49:17.488Z,5.65
2022-07-26T03:51:44.940Z,8.93
2022-07-26T03:54:11.951Z,5.50
2022-07-26T03:56:40.266Z,7.50
2022-07-26T03:59:09.670Z,3.65
2022-07-26T04:01:41.919Z,6.80
2022-07-26T04:04:09.783Z,6.22
2022-07-26T04:06:37.326Z,4.20
2022-07-26T04:09:06.133Z,6.80
2022-07-26T04:11:33.318Z,9.13
2022-07-26T04:14:00.771Z,5.57
2022-07-26T04:16:27.797Z,6.40
2022-07-26T04:18:55.003Z,5.63
2022-07-26T04:21:21.995Z,8.25
2022-07-26T04:23:51.269Z,6.60
2022-07-26T04:26:20.398Z,5.70
2022-07-26T04:28:47.616Z,7.97
2022-07-26T04:31:14.484Z,6.82
2022-07-26T04:33:41.437Z,7.15
2022-07-26T04:36:08.610Z,4.35
2022-07-26T04:38:35.317Z,5.78
2022-07-26T04:41:02.071Z,7.38
2022-07-26T04:43:28.878Z,4.50
2022-07-26T04:45:57.528Z,5.82
2022-07-26T04:48:25.577Z,6.60
2022-07-26T04:50:53.176Z,5.50
2022-07-26T04:53:20.502Z,4.95
2022-07-26T04:55:47.871Z,7.10
2022-07-26T04:58:14.722Z,8.18
2022-07-26T05:01:09.399Z,5.40
2022-07-26T05:03:28.561Z,4.35
2022-07-26T05:05:55.221Z,7.38
2022-07-26T05:08:21.934Z,6.70
2022-07-26T05:10:54.945Z,7.93
2022-07-26T05:13:23.109Z,4.87
2022-07-26T05:15:56.908Z,6.60
2022-07-26T05:18:23.613Z,7.40
2022-07-26T05:20:51.532Z,5.30
2022-07-26T05:23:19.871Z,6.65
2022-07-26T05:25:47.429Z,5.88
2022-07-26T05:28:14.463Z,7.90
2022-07-26T05:30:41.311Z,6.28
2022-07-26T05:33:08.073Z,7.45
2022-07-26T05:35:34.764Z,6.45
2022-07-26T05:38:01.696Z,7.97
2022-07-26T05:40:28.512Z,10.95
2022-07-26T05:42:55.237Z,8.15
2022-07-26T05:45:21.990Z,7.60
2022-07-26T05:47:52.489Z,6.60
2022-07-26T05:50:19.713Z,7.97
2022-07-26T05:52:46.410Z,11.20
2022-07-26T05:55:13.188Z,8.50
2022-07-26T05:57:47.287Z,7.93
2022-07-26T06:00:16.965Z,13.02
2022-07-26T06:02:43.850Z,9.05
2022-07-26T06:05:10.828Z,6.53
2022-07-26T06:07:38.769Z,13.40
2022-07-26T06:10:06.094Z,6.45
2022-07-26T06:12:32.807Z,7.35
2022-07-26T06:14:59.519Z,10.48
2022-07-26T06:17:30.049Z,9.25
2022-07-26T06:19:58.137Z,10.47
2022-07-26T06:22:24.911Z,13.03
2022-07-26T06:24:51.818Z,12.98
2022-07-26T06:27:18.538Z,7.00
2022-07-26T06:29:48.299Z,11.13
2022-07-26T06:32:15.202Z,9.90
2022-07-26T06:34:42.057Z,6.47
2022-07-26T06:37:08.749Z,8.07
2022-07-26T06:39:41.537Z,14.95
2022-07-26T06:42:08.272Z,10.18
2022-07-26T06:44:35.192Z,9.15
2022-07-26T06:47:01.900Z,13.93
2022-07-26T06:49:28.804Z,9.15
2022-07-26T06:51:57.807Z,9.68
2022-07-26T06:54:24.577Z,8.73
2022-07-26T06:56:51.336Z,9.75
2022-07-26T06:59:18.231Z,11.07
2022-07-26T07:01:57.460Z,11.82
2022-07-26T07:04:31.679Z,10.32
2022-07-26T07:07:04.546Z,10.18
2022-07-26T07:09:33.024Z,11.45
2022-07-26T07:12:05.397Z,12.07
2022-07-26T07:14:37.139Z,8.77
2022-07-26T07:17:03.936Z,7.32
2022-07-26T07:19:39.863Z,11.90
2022-07-26T07:22:11.731Z,10.50
2022-07-26T07:24:39.133Z,14.38
2022-07-26T07:27:05.974Z,10.30
2022-07-26T07:29:33.865Z,12.60
2022-07-26T07:32:03.361Z,9.77
2022-07-26T07:34:30.611Z,9.65
2022-07-26T07:36:57.717Z,9.55
2022-07-26T07:39:27.320Z,11.57
2022-07-26T07:42:01.873Z,8.77
2022-07-26T07:44:28.596Z,9.52
2022-07-26T07:46:55.474Z,13.77
2022-07-26T07:49:22.530Z,12.38
2022-07-26T07:51:49.428Z,12.98
2022-07-26T07:54:16.688Z,12.45
2022-07-26T07:56:43.858Z,14.57
2022-07-26T07:59:10.961Z,12.30
2022-07-26T08:01:40.486Z,13.70
2022-07-26T08:04:08.840Z,11.85
2022-07-26T08:06:55.988Z,9.70
2022-07-26T08:09:28.763Z,12.50
2022-07-26T08:11:55.748Z,12.75
2022-07-26T08:14:23.170Z,12.45
2022-07-26T08:16:50.201Z,10.55
2022-07-26T08:19:17.033Z,10.40
2022-07-26T08:21:45.991Z,10.40
2022-07-26T08:24:13.775Z,9.75
2022-07-26T08:26:40.520Z,17.10
2022-07-26T08:29:07.209Z,16.00
2022-07-26T08:31:33.964Z,15.23
2022-07-26T08:34:00.821Z,13.20
2022-07-26T08:36:32.327Z,13.02
2022-07-26T08:39:00.080Z,19.27
2022-07-26T08:41:26.858Z,15.35
2022-07-26T08:43:54.093Z,17.58
2022-07-26T08:46:25.996Z,14.57
2022-07-26T08:49:52.671Z,14.85
2022-07-26T08:56:38.883Z,13.80
2022-07-26T08:59:18.864Z,12.02
2022-07-26T09:01:54.242Z,12.15
2022-07-26T09:04:31.713Z,11.50
2022-07-26T09:07:21.614Z,10.63
2022-07-26T09:10:06.077Z,13.90
2022-07-26T09:12:33.606Z,13.10
2022-07-26T09:15:02.099Z,10.32
2022-07-26T09:17:43.243Z,10.02
2022-07-26T09:20:18.019Z,12.70
2022-07-26T09:23:02.880Z,11.00
2022-07-26T09:25:34.946Z,9.82
2022-07-26T09:28:02.591Z,9.73
2022-07-26T09:30:31.821Z,10.52
2022-07-26T09:33:05.884Z,8.63
2022-07-26T09:35:52.339Z,8.70
2022-07-26T09:38:19.505Z,8.10
2022-07-26T09:40:50.932Z,10.10
2022-07-26T09:43:19.769Z,10.40
2022-07-26T09:46:05.247Z,11.75
2022-07-26T09:48:46.161Z,13.15
2022-07-26T09:51:48.014Z,11.43
2022-07-26T09:54:31.308Z,12.23
2022-07-26T09:56:58.895Z,11.00
2022-07-26T09:59:27.094Z,11.30
2022-07-26T10:01:55.749Z,12.88
2022-07-26T10:04:22.820Z,11.80
2022-07-26T10:06:50.065Z,15.30
2022-07-26T10:09:23.259Z,12.15
2022-07-26T10:12:00.835Z,17.35
2022-07-26T10:14:33.396Z,13.25
2022-07-26T10:17:01.455Z,13.10
2022-07-26T10:19:45.692Z,12.65
2022-07-26T10:22:31.436Z,12.50
2022-07-26T10:25:18.162Z,14.32
2022-07-26T10:27:47.081Z,10.80
2022-07-26T10:30:20.138Z,10.45
2022-07-26T10:33:10.277Z,10.60
2022-07-26T10:35:40.884Z,13.20
2022-07-26T10:38:10.390Z,10.27
2022-07-26T10:40:38.683Z,11.00
2022-07-26T10:43:40.704Z,10.13
2022-07-26T10:46:20.335Z,8.43
2022-07-26T10:49:04.568Z,11.05
2022-07-26T10:51:40.124Z,4.10
2022-07-26T10:54:09.604Z,5.35
2022-07-26T10:56:37.685Z,6.78
2022-07-26T10:59:05.490Z,5.50
2022-07-26T11:01:35.998Z,6.65
2022-07-26T11:04:03.064Z,3.38
2022-07-26T11:06:30.377Z,6.75
2022-07-26T11:08:57.191Z,5.30
2022-07-26T11:11:31.764Z,8.20
2022-07-26T11:14:10.117Z,5.72
2022-07-26T11:16:42.194Z,6.50
2022-07-26T11:19:13.088Z,7.50
2022-07-26T11:21:41.234Z,3.90
2022-07-26T11:24:09.775Z,8.52
2022-07-26T11:26:43.927Z,5.20
2022-07-26T11:29:17.274Z,6.38
2022-07-26T11:31:51.965Z,4.63
2022-07-26T11:34:33.394Z,4.20
2022-07-26T11:37:04.089Z,5.43
2022-07-26T11:39:33.179Z,5.03
2022-07-26T11:42:01.272Z,6.07
2022-07-26T11:44:28.672Z,4.78
2022-07-26T11:46:57.762Z,5.22
2022-07-26T11:49:51.944Z,6.35
2022-07-26T11:52:13.155Z,6.13
2022-07-26T11:54:48.913Z,5.20
2022-07-26T11:57:16.624Z,6.45
2022-07-26T11:59:45.803Z,6.50
2022-07-26T12:02:13.465Z,4.63
2022-07-26T12:04:42.578Z,2.83
2022-07-26T12:07:15.443Z,4.65
2022-07-26T12:09:54.178Z,3.38
2022-07-26T12:12:23.375Z,1.98
2022-07-26T12:14:57.637Z,4.93
2022-07-26T12:17:24.729Z,3.03
2022-07-26T12:19:51.469Z,3.22
2022-07-26T12:22:22.931Z,3.28
2022-07-26T12:24:52.499Z,5.65
2022-07-26T12:27:22.198Z,4.97
2022-07-26T12:29:50.258Z,3.13
2022-07-26T12:32:19.317Z,4.05
2022-07-26T12:34:59.582Z,3.22
2022-07-26T12:37:39.305Z,4.43
2022-07-26T12:40:13.556Z,3.33
2022-07-26T12:42:58.692Z,4.35
2022-07-26T12:45:28.814Z,4.43
2022-07-26T12:47:57.117Z,4.10
2022-07-26T12:50:27.691Z,3.80
2022-07-26T12:53:08.939Z,5.45
2022-07-26T12:55:39.319Z,3.55
2022-07-26T12:58:06.048Z,3.25
2022-07-26T13:00:32.838Z,4.43
2022-07-26T13:02:59.599Z,5.85
2022-07-26T13:05:26.366Z,5.57
2022-07-26T13:07:53.330Z,4.47
2022-07-26T13:10:33.238Z,5.85
2022-07-26T13:13:01.549Z,4.60
2022-07-26T13:15:35.980Z,4.57
2022-07-26T13:18:06.268Z,4.00
2022-07-26T13:20:33.063Z,8.45
2022-07-26T13:22:59.819Z,3.20
2022-07-26T13:25:29.022Z,5.72
2022-07-26T13:28:00.186Z,3.40
2022-07-26T13:30:27.023Z,4.05
2022-07-26T13:32:53.809Z,3.90
2022-07-26T13:35:20.587Z,5.25
2022-07-26T13:37:47.413Z,3.30
2022-07-26T13:40:14.117Z,6.15
2022-07-26T13:42:40.875Z,3.88
2022-07-26T13:45:08.334Z,4.05
2022-07-26T13:47:35.043Z,4.60
2022-07-26T13:50:01.898Z,3.97
2022-07-26T13:52:29.079Z,4.03
2022-07-26T13:54:55.786Z,2.15
2022-07-26T13:57:22.495Z,2.88
2022-07-26T13:59:49.227Z,3.13
2022-07-26T14:02:16.075Z,5.18
2022-07-26T14:04:43.121Z,3.35
2022-07-26T14:07:09.803Z,5.13
2022-07-26T14:09:37.132Z,5.53
2022-07-26T14:12:04.104Z,4.72
2022-07-26T14:14:30.908Z,3.05
2022-07-26T14:16:57.645Z,5.68
2022-07-26T14:19:24.429Z,4.07
2022-07-26T14:21:59.528Z,3.63
2022-07-26T14:24:27.774Z,3.70
2022-07-26T14:26:58.875Z,3.67
2022-07-26T14:29:26.918Z,2.90
2022-07-26T14:31:53.836Z,4.90
2022-07-26T14:34:20.657Z,3.13
2022-07-26T14:36:47.399Z,3.42
2022-07-26T14:39:14.112Z,4.50
2022-07-26T14:41:40.968Z,2.88
2022-07-26T14:44:07.911Z,3.22
2022-07-26T14:46:34.929Z,4.10
2022-07-26T14:49:01.682Z,1.75
2022-07-26T14:51:28.652Z,2.65
2022-07-26T14:53:55.411Z,3.72
2022-07-26T14:56:22.294Z,1.75
2022-07-26T14:58:49.135Z,2.28
2022-07-26T15:01:16.634Z,1.52
2022-07-26T15:03:43.453Z,2.88
2022-07-26T15:06:10.321Z,1.60
2022-07-26T15:08:37.087Z,2.45
2022-07-26T15:11:05.476Z,1.50
2022-07-26T15:13:32.405Z,2.83
2022-07-26T15:15:59.196Z,1.70
2022-07-26T15:18:26.178Z,2.28
2022-07-26T15:20:53.336Z,4.05
2022-07-26T15:23:20.082Z,3.58
2022-07-26T15:25:48.563Z,3.15
2022-07-26T15:28:16.289Z,3.20
2022-07-26T15:30:43.286Z,5.03
2022-07-26T15:33:10.140Z,3.13
2022-07-26T15:35:37.137Z,3.47
2022-07-26T15:38:04.205Z,4.10
2022-07-26T15:40:30.995Z,4.20
2022-07-26T15:42:57.845Z,3.22
2022-07-26T15:45:25.234Z,4.10
2022-07-26T15:47:55.953Z,2.20
2022-07-26T15:50:26.412Z,7.63
2022-07-26T15:52:53.302Z,5.65
2022-07-26T15:55:20.532Z,5.57
2022-07-26T15:57:47.706Z,2.50
2022-07-26T16:00:15.481Z,3.58
2022-07-26T16:02:42.626Z,3.90
2022-07-26T16:05:10.443Z,2.63
2022-07-26T16:07:38.042Z,4.18
2022-07-26T16:10:05.292Z,2.03
2022-07-26T16:12:32.881Z,4.25
2022-07-26T16:14:59.687Z,4.68
2022-07-26T16:17:26.405Z,4.93
2022-07-26T16:19:53.393Z,4.10
2022-07-26T16:22:20.131Z,4.32
2022-07-26T16:24:46.861Z,3.92
2022-07-26T16:27:13.585Z,4.65
2022-07-26T16:29:40.366Z,3.97
2022-07-26T16:32:09.341Z,3.60
2022-07-26T16:34:36.525Z,4.43
2022-07-26T16:37:04.285Z,2.75
2022-07-26T16:39:31.121Z,4.60
2022-07-26T16:42:00.884Z,2.03
2022-07-26T16:44:30.043Z,1.58
2022-07-26T16:46:57.227Z,5.03
2022-07-26T16:49:24.199Z,2.40
2022-07-26T16:51:51.060Z,2.47
2022-07-26T16:54:17.832Z,1.92
2022-07-26T16:56:44.662Z,2.10
2022-07-26T16:59:11.809Z,4.90
2022-07-26T17:01:38.945Z,2.95
2022-07-26T17:04:05.911Z,2.15
2022-07-26T17:06:32.677Z,1.77
2022-07-26T17:08:59.417Z,2.67
2022-07-26T17:11:26.197Z,6.47
2022-07-26T17:13:53.458Z,3.78
2022-07-26T17:16:24.518Z,6.68
2022-07-26T17:18:52.636Z,2.88
2022-07-26T17:21:19.341Z,3.63
2022-07-26T17:23:46.106Z,3.65
2022-07-26T17:26:12.979Z,3.40
2022-07-26T17:28:39.744Z,4.45
2022-07-26T17:31:06.602Z,6.15
2022-07-26T17:33:33.313Z,7.32
2022-07-26T17:36:03.434Z,4.82
2022-07-26T17:38:33.634Z,3.95
2022-07-26T17:41:00.994Z,5.35
2022-07-26T17:43:36.741Z,7.03
2022-07-26T17:46:04.044Z,9.77
2022-07-26T17:48:30.925Z,2.58
2022-07-26T17:50:57.720Z,4.65
2022-07-26T17:53:34.327Z,3.95
2022-07-26T17:56:01.954Z,3.75
2022-07-26T17:58:28.669Z,2.53
2022-07-26T18:00:55.438Z,3.53
2022-07-26T18:03:23.169Z,3.85
2022-07-26T18:05:50.856Z,3.03
2022-07-26T18:08:17.688Z,3.92
2022-07-26T18:10:48.972Z,2.30
2022-07-26T18:13:17.841Z,3.58
2022-07-26T18:15:44.896Z,2.97
2022-07-26T18:18:11.720Z,2.17
2022-07-26T18:20:38.683Z,3.35
2022-07-26T18:23:05.893Z,3.35
2022-07-26T18:25:32.763Z,4.82
2022-07-26T18:28:03.369Z,4.75
2022-07-26T18:30:34.082Z,5.75
2022-07-26T18:33:01.203Z,5.38
2022-07-26T18:35:28.315Z,4.17
2022-07-26T18:37:55.223Z,5.47
2022-07-26T18:40:25.927Z,4.30
2022-07-26T18:42:52.923Z,5.45
2022-07-26T18:45:19.996Z,3.65
2022-07-26T18:47:46.821Z,3.80
2022-07-26T18:50:16.960Z,5.37
2022-07-26T18:52:44.813Z,5.63
2022-07-26T18:55:12.861Z,6.70
2022-07-26T18:57:41.674Z,4.47
2022-07-26T19:00:12.790Z,5.30
2022-07-26T19:02:39.669Z,5.10
2022-07-26T19:05:07.281Z,7.75
2022-07-26T19:07:34.154Z,2.70
2022-07-26T19:10:00.909Z,3.78
2022-07-26T19:12:28.292Z,2.30
2022-07-26T19:14:55.271Z,5.22
2022-07-26T19:17:22.563Z,4.05
2022-07-26T19:19:49.329Z,5.35
2022-07-26T19:22:16.040Z,5.10
2022-07-26T19:24:42.944Z,4.45
2022-07-26T19:27:09.753Z,3.75
2022-07-26T19:29:39.475Z,5.95
2022-07-26T19:32:06.771Z,4.07
2022-07-26T19:34:33.674Z,6.35
2022-07-26T19:37:00.514Z,5.38
2022-07-26T19:39:27.319Z,8.35
2022-07-26T19:41:54.036Z,6.53
2022-07-26T19:44:20.749Z,6.60
2022-07-26T19:46:47.547Z,6.90
2022-07-26T19:49:16.836Z,3.45
2022-07-26T19:51:44.220Z,6.55
2022-07-26T19:54:11.044Z,4.20
2022-07-26T19:56:39.922Z,6.00
2022-07-26T19:59:06.616Z,5.07
2022-07-26T20:01:33.444Z,5.17
2022-07-26T20:04:02.220Z,6.60
2022-07-26T20:06:29.036Z,4.83
2022-07-26T20:08:55.805Z,5.33
2022-07-26T20:11:24.734Z,4.00
2022-07-26T20:13:51.710Z,5.93
2022-07-26T20:16:18.576Z,6.30
2022-07-26T20:18:45.385Z,4.83
2022-07-26T20:21:12.099Z,6.93
2022-07-26T20:23:38.868Z,7.90
2022-07-26T20:26:05.833Z,7.53
2022-07-26T20:28:32.727Z,4.68
2022-07-26T20:30:59.490Z,6.23
2022-07-26T20:33:26.336Z,7.10
2022-07-26T20:35:55.303Z,7.53
2022-07-26T20:38:22.734Z,8.30
2022-07-26T20:40:49.568Z,4.93
2022-07-26T20:43:17.024Z,6.07
2022-07-26T20:45:44.336Z,8.57
2022-07-26T20:48:11.100Z,6.67
2022-07-26T20:50:38.484Z,7.75
2022-07-26T20:53:05.310Z,5.40
2022-07-26T20:55:32.189Z,4.63
2022-07-26T20:57:59.285Z,8.27
2022-07-26T21:00:26.824Z,8.80
2022-07-26T21:02:53.950Z,7.35
2022-07-26T21:05:20.972Z,4.32
2022-07-26T21:07:58.345Z,5.20
2022-07-26T21:10:27.456Z,5.35
2022-07-26T21:12:57.107Z,5.43
2022-07-26T21:15:23.850Z,6.03
2022-07-26T21:17:52.337Z,6.60
2022-07-26T21:20:19.577Z,7.82
2022-07-26T21:22:46.337Z,7.00
2022-07-26T21:25:13.102Z,7.93
2022-07-26T21:27:39.843Z,7.00
2022-07-26T21:30:07.340Z,5.97
2022-07-26T21:32:34.066Z,5.23
2022-07-26T21:35:01.029Z,5.68
2022-07-26T21:37:27.796Z,7.97
2022-07-26T21:39:54.509Z,6.67
2022-07-26T21:42:21.219Z,6.33
2022-07-26T21:44:53.584Z,7.88
2022-07-26T21:47:20.308Z,8.03
2022-07-26T21:49:47.042Z,7.60
2022-07-26T21:52:13.774Z,5.27
2022-07-26T21:54:40.481Z,5.85
2022-07-26T21:57:07.552Z,6.80
2022-07-26T21:59:34.463Z,6.20
2022-07-26T22:02:01.448Z,7.53
2022-07-26T22:04:28.274Z,8.60
2022-07-26T22:06:54.958Z,8.10
2022-07-26T22:09:21.672Z,6.60
2022-07-26T22:11:48.426Z,5.47
2022-07-26T22:14:15.139Z,7.37
2022-07-26T22:16:44.449Z,5.87
2022-07-26T22:19:11.747Z,6.63
2022-07-26T22:21:39.664Z,4.50
2022-07-26T22:24:06.870Z,7.97
2022-07-26T22:26:33.707Z,4.67
2022-07-26T22:29:00.668Z,4.83
2022-07-26T22:31:27.444Z,5.23
2022-07-26T22:33:54.237Z,4.67
2022-07-26T22:36:21.926Z,7.10
2022-07-26T22:38:48.740Z,6.07
2022-07-26T22:41:15.535Z,6.90
2022-07-26T22:43:42.266Z,5.50
2022-07-26T22:46:09.142Z,8.23
2022-07-26T22:48:38.679Z,5.90
2022-07-26T22:51:06.144Z,3.70
2022-07-26T22:53:32.895Z,4.23
2022-07-26T22:55:59.747Z,11.43
2022-07-26T22:58:26.426Z,8.80
2022-07-26T23:00:54.139Z,6.17
2022-07-26T23:03:21.669Z,6.63
2022-07-26T23:05:49.730Z,5.43
2022-07-26T23:11:04.997Z,5.37
2022-07-26T23:13:31.840Z,6.40
2022-07-26T23:16:01.217Z,4.80
2022-07-26T23:18:29.737Z,6.13
2022-07-26T23:20:56.681Z,4.30
2022-07-26T23:23:25.385Z,8.20
2022-07-26T23:25:57.164Z,6.57
2022-07-26T23:28:36.231Z,4.00
2022-07-26T23:31:11.594Z,4.20
2022-07-26T23:33:51.441Z,6.97
2022-07-26T23:36:25.701Z,3.50
2022-07-26T23:38:53.859Z,4.80
2022-07-26T23:41:20.836Z,6.00
2022-07-26T23:43:47.657Z,3.33
2022-07-26T23:46:14.563Z,5.60
2022-07-26T23:48:41.501Z,4.60
2022-07-26T23:51:08.544Z,6.10
2022-07-26T23:53:35.485Z,4.43
2022-07-26T23:56:02.187Z,3.83
2022-07-26T23:58:29.231Z,4.00
